sensor_id;sensor_type;location;lat;lon;timestamp;P1;durP1;ratioP1;P2;durP2;ratioP2
12663;SDS011;6396;58.490;15.528;2022-12-18T00:01:00;15.50;;;9.63;;
12663;SDS011;6396;58.490;15.528;2022-12-18T00:03:30;19.57;;;10.77;;
12663;SDS011;6396;58.490;15.528;2022-12-18T00:05:58;18.83;;;9.60;;
12663;SDS011;6396;58.490;15.528;2022-12-18T00:08:25;17.87;;;9.10;;
12663;SDS011;6396;58.490;15.528;2022-12-18T00:10:51;17.93;;;10.17;;
12663;SDS011;6396;58.490;15.528;2022-12-18T00:13:18;16.10;;;10.23;;
12663;SDS011;6396;58.490;15.528;2022-12-18T00:15:46;16.83;;;9.60;;
12663;SDS011;6396;58.490;15.528;2022-12-18T00:18:13;18.00;;;9.67;;
12663;SDS011;6396;58.490;15.528;2022-12-18T00:20:40;18.00;;;10.10;;
12663;SDS011;6396;58.490;15.528;2022-12-18T00:23:07;15.30;;;8.73;;
12663;SDS011;6396;58.490;15.528;2022-12-18T00:25:33;17.17;;;9.20;;
12663;SDS011;6396;58.490;15.528;2022-12-18T00:28:01;15.83;;;9.40;;
12663;SDS011;6396;58.490;15.528;2022-12-18T00:30:28;17.83;;;9.97;;
12663;SDS011;6396;58.490;15.528;2022-12-18T00:32:56;18.10;;;10.37;;
12663;SDS011;6396;58.490;15.528;2022-12-18T00:35:23;19.13;;;9.63;;
12663;SDS011;6396;58.490;15.528;2022-12-18T00:37:50;18.23;;;9.10;;
12663;SDS011;6396;58.490;15.528;2022-12-18T00:40:17;17.27;;;10.10;;
12663;SDS011;6396;58.490;15.528;2022-12-18T00:42:44;15.50;;;9.27;;
12663;SDS011;6396;58.490;15.528;2022-12-18T00:45:22;16.03;;;8.87;;
12663;SDS011;6396;58.490;15.528;2022-12-18T00:47:49;17.70;;;8.93;;
12663;SDS011;6396;58.490;15.528;2022-12-18T00:50:17;18.87;;;10.23;;
12663;SDS011;6396;58.490;15.528;2022-12-18T00:52:44;16.23;;;9.37;;
12663;SDS011;6396;58.490;15.528;2022-12-18T00:55:11;15.97;;;9.67;;
12663;SDS011;6396;58.490;15.528;2022-12-18T00:57:38;17.17;;;9.57;;
12663;SDS011;6396;58.490;15.528;2022-12-18T01:00:06;16.87;;;9.97;;
12663;SDS011;6396;58.490;15.528;2022-12-18T01:02:35;16.33;;;9.63;;
12663;SDS011;6396;58.490;15.528;2022-12-18T01:05:02;16.63;;;9.57;;
12663;SDS011;6396;58.490;15.528;2022-12-18T01:07:30;17.17;;;9.37;;
12663;SDS011;6396;58.490;15.528;2022-12-18T01:09:57;17.47;;;9.87;;
12663;SDS011;6396;58.490;15.528;2022-12-18T01:12:23;19.07;;;9.67;;
12663;SDS011;6396;58.490;15.528;2022-12-18T01:14:50;14.83;;;9.40;;
12663;SDS011;6396;58.490;15.528;2022-12-18T01:17:17;17.30;;;9.43;;
12663;SDS011;6396;58.490;15.528;2022-12-18T01:19:44;17.47;;;9.57;;
12663;SDS011;6396;58.490;15.528;2022-12-18T01:22:10;16.47;;;9.57;;
12663;SDS011;6396;58.490;15.528;2022-12-18T01:24:38;17.30;;;10.20;;
12663;SDS011;6396;58.490;15.528;2022-12-18T01:27:05;13.60;;;8.67;;
12663;SDS011;6396;58.490;15.528;2022-12-18T01:29:32;15.80;;;8.90;;
12663;SDS011;6396;58.490;15.528;2022-12-18T01:31:59;15.73;;;8.87;;
12663;SDS011;6396;58.490;15.528;2022-12-18T01:34:27;16.23;;;9.63;;
12663;SDS011;6396;58.490;15.528;2022-12-18T01:36:54;16.30;;;10.00;;
12663;SDS011;6396;58.490;15.528;2022-12-18T01:39:20;16.57;;;9.13;;
12663;SDS011;6396;58.490;15.528;2022-12-18T01:41:49;19.23;;;9.43;;
12663;SDS011;6396;58.490;15.528;2022-12-18T01:47:23;17.73;;;9.60;;
12663;SDS011;6396;58.490;15.528;2022-12-18T01:49:52;18.33;;;9.50;;
12663;SDS011;6396;58.490;15.528;2022-12-18T01:52:19;19.80;;;9.63;;
12663;SDS011;6396;58.490;15.528;2022-12-18T01:54:46;17.23;;;8.50;;
12663;SDS011;6396;58.490;15.528;2022-12-18T01:57:16;16.00;;;9.17;;
12663;SDS011;6396;58.490;15.528;2022-12-18T01:59:43;17.27;;;9.93;;
12663;SDS011;6396;58.490;15.528;2022-12-18T02:02:13;15.80;;;8.97;;
12663;SDS011;6396;58.490;15.528;2022-12-18T02:04:41;16.33;;;9.77;;
12663;SDS011;6396;58.490;15.528;2022-12-18T02:07:10;15.03;;;8.63;;
12663;SDS011;6396;58.490;15.528;2022-12-18T02:09:44;14.13;;;8.20;;
12663;SDS011;6396;58.490;15.528;2022-12-18T02:12:18;13.83;;;8.93;;
12663;SDS011;6396;58.490;15.528;2022-12-18T02:14:49;15.93;;;9.23;;
12663;SDS011;6396;58.490;15.528;2022-12-18T02:17:26;14.67;;;8.83;;
12663;SDS011;6396;58.490;15.528;2022-12-18T02:20:04;18.33;;;8.87;;
12663;SDS011;6396;58.490;15.528;2022-12-18T02:22:42;16.30;;;8.40;;
12663;SDS011;6396;58.490;15.528;2022-12-18T02:25:26;14.80;;;8.40;;
12663;SDS011;6396;58.490;15.528;2022-12-18T02:28:08;16.13;;;8.37;;
12663;SDS011;6396;58.490;15.528;2022-12-18T02:30:39;14.17;;;8.53;;
12663;SDS011;6396;58.490;15.528;2022-12-18T02:33:08;14.77;;;7.97;;
12663;SDS011;6396;58.490;15.528;2022-12-18T02:35:37;15.00;;;9.17;;
12663;SDS011;6396;58.490;15.528;2022-12-18T02:38:06;15.50;;;8.20;;
12663;SDS011;6396;58.490;15.528;2022-12-18T02:40:33;15.93;;;8.83;;
12663;SDS011;6396;58.490;15.528;2022-12-18T02:43:03;17.23;;;9.80;;
12663;SDS011;6396;58.490;15.528;2022-12-18T02:45:35;18.83;;;9.53;;
12663;SDS011;6396;58.490;15.528;2022-12-18T02:48:02;15.03;;;8.73;;
12663;SDS011;6396;58.490;15.528;2022-12-18T02:50:30;15.93;;;9.07;;
12663;SDS011;6396;58.490;15.528;2022-12-18T02:53:03;16.70;;;8.73;;
12663;SDS011;6396;58.490;15.528;2022-12-18T02:55:39;17.57;;;9.27;;
12663;SDS011;6396;58.490;15.528;2022-12-18T02:58:17;15.43;;;9.23;;
12663;SDS011;6396;58.490;15.528;2022-12-18T03:00:48;12.87;;;8.77;;
12663;SDS011;6396;58.490;15.528;2022-12-18T03:03:26;15.17;;;8.27;;
12663;SDS011;6396;58.490;15.528;2022-12-18T03:05:58;16.00;;;9.20;;
12663;SDS011;6396;58.490;15.528;2022-12-18T03:08:31;15.60;;;8.80;;
12663;SDS011;6396;58.490;15.528;2022-12-18T03:11:04;14.03;;;8.93;;
12663;SDS011;6396;58.490;15.528;2022-12-18T03:13:36;13.67;;;8.20;;
12663;SDS011;6396;58.490;15.528;2022-12-18T03:16:06;14.57;;;8.70;;
12663;SDS011;6396;58.490;15.528;2022-12-18T03:18:36;13.27;;;8.50;;
12663;SDS011;6396;58.490;15.528;2022-12-18T03:21:06;15.57;;;8.63;;
12663;SDS011;6396;58.490;15.528;2022-12-18T03:23:38;14.37;;;8.97;;
12663;SDS011;6396;58.490;15.528;2022-12-18T03:26:09;12.67;;;8.03;;
12663;SDS011;6396;58.490;15.528;2022-12-18T03:28:42;17.47;;;8.53;;
12663;SDS011;6396;58.490;15.528;2022-12-18T03:31:12;16.10;;;9.03;;
12663;SDS011;6396;58.490;15.528;2022-12-18T03:33:42;18.40;;;9.30;;
12663;SDS011;6396;58.490;15.528;2022-12-18T03:36:12;14.87;;;8.53;;
12663;SDS011;6396;58.490;15.528;2022-12-18T03:38:40;13.93;;;9.00;;
12663;SDS011;6396;58.490;15.528;2022-12-18T03:41:07;13.80;;;8.40;;
12663;SDS011;6396;58.490;15.528;2022-12-18T03:43:45;12.57;;;7.93;;
12663;SDS011;6396;58.490;15.528;2022-12-18T03:46:21;16.47;;;8.17;;
12663;SDS011;6396;58.490;15.528;2022-12-18T03:48:55;15.57;;;8.13;;
12663;SDS011;6396;58.490;15.528;2022-12-18T03:51:28;13.10;;;8.03;;
12663;SDS011;6396;58.490;15.528;2022-12-18T03:54:03;14.80;;;8.77;;
12663;SDS011;6396;58.490;15.528;2022-12-18T03:56:33;14.40;;;8.50;;
12663;SDS011;6396;58.490;15.528;2022-12-18T03:59:05;14.10;;;8.70;;
12663;SDS011;6396;58.490;15.528;2022-12-18T04:01:34;17.63;;;8.83;;
12663;SDS011;6396;58.490;15.528;2022-12-18T04:04:04;14.77;;;8.97;;
12663;SDS011;6396;58.490;15.528;2022-12-18T04:06:33;13.17;;;8.23;;
12663;SDS011;6396;58.490;15.528;2022-12-18T04:09:01;13.13;;;8.17;;
12663;SDS011;6396;58.490;15.528;2022-12-18T04:11:28;15.50;;;8.53;;
12663;SDS011;6396;58.490;15.528;2022-12-18T04:13:55;13.10;;;9.43;;
12663;SDS011;6396;58.490;15.528;2022-12-18T04:16:24;12.73;;;8.17;;
12663;SDS011;6396;58.490;15.528;2022-12-18T04:18:51;13.20;;;7.77;;
12663;SDS011;6396;58.490;15.528;2022-12-18T04:21:19;15.83;;;9.00;;
12663;SDS011;6396;58.490;15.528;2022-12-18T04:23:47;14.90;;;8.60;;
12663;SDS011;6396;58.490;15.528;2022-12-18T04:26:14;13.07;;;8.37;;
12663;SDS011;6396;58.490;15.528;2022-12-18T04:28:41;15.37;;;8.83;;
12663;SDS011;6396;58.490;15.528;2022-12-18T04:31:08;15.43;;;9.33;;
12663;SDS011;6396;58.490;15.528;2022-12-18T04:33:36;13.07;;;8.90;;
12663;SDS011;6396;58.490;15.528;2022-12-18T04:36:03;16.63;;;9.40;;
12663;SDS011;6396;58.490;15.528;2022-12-18T04:38:30;17.30;;;8.97;;
12663;SDS011;6396;58.490;15.528;2022-12-18T04:40:57;15.40;;;9.40;;
12663;SDS011;6396;58.490;15.528;2022-12-18T04:43:24;14.33;;;8.97;;
12663;SDS011;6396;58.490;15.528;2022-12-18T04:45:51;15.13;;;8.93;;
12663;SDS011;6396;58.490;15.528;2022-12-18T04:48:17;14.37;;;9.47;;
12663;SDS011;6396;58.490;15.528;2022-12-18T04:50:47;16.23;;;9.50;;
12663;SDS011;6396;58.490;15.528;2022-12-18T04:53:14;17.40;;;9.97;;
12663;SDS011;6396;58.490;15.528;2022-12-18T04:55:41;17.10;;;10.10;;
12663;SDS011;6396;58.490;15.528;2022-12-18T04:58:07;15.03;;;9.97;;
12663;SDS011;6396;58.490;15.528;2022-12-18T05:00:34;16.77;;;9.27;;
12663;SDS011;6396;58.490;15.528;2022-12-18T05:03:02;17.17;;;10.40;;
12663;SDS011;6396;58.490;15.528;2022-12-18T05:05:28;14.33;;;9.67;;
12663;SDS011;6396;58.490;15.528;2022-12-18T05:07:57;17.67;;;10.17;;
12663;SDS011;6396;58.490;15.528;2022-12-18T05:10:23;13.97;;;9.77;;
12663;SDS011;6396;58.490;15.528;2022-12-18T05:12:50;19.57;;;10.67;;
12663;SDS011;6396;58.490;15.528;2022-12-18T05:15:27;15.10;;;10.07;;
12663;SDS011;6396;58.490;15.528;2022-12-18T05:17:55;20.17;;;11.10;;
12663;SDS011;6396;58.490;15.528;2022-12-18T05:20:22;18.40;;;11.03;;
12663;SDS011;6396;58.490;15.528;2022-12-18T05:22:49;16.13;;;9.97;;
12663;SDS011;6396;58.490;15.528;2022-12-18T05:25:18;20.17;;;11.63;;
12663;SDS011;6396;58.490;15.528;2022-12-18T05:27:45;17.87;;;9.80;;
12663;SDS011;6396;58.490;15.528;2022-12-18T05:30:13;19.67;;;10.30;;
12663;SDS011;6396;58.490;15.528;2022-12-18T05:32:41;20.73;;;11.87;;
12663;SDS011;6396;58.490;15.528;2022-12-18T05:35:09;16.43;;;11.10;;
12663;SDS011;6396;58.490;15.528;2022-12-18T05:37:36;15.80;;;10.07;;
12663;SDS011;6396;58.490;15.528;2022-12-18T05:40:04;19.73;;;12.00;;
12663;SDS011;6396;58.490;15.528;2022-12-18T05:42:32;17.70;;;11.57;;
12663;SDS011;6396;58.490;15.528;2022-12-18T05:44:59;16.97;;;11.07;;
12663;SDS011;6396;58.490;15.528;2022-12-18T05:47:26;17.83;;;11.47;;
12663;SDS011;6396;58.490;15.528;2022-12-18T05:49:53;16.33;;;10.93;;
12663;SDS011;6396;58.490;15.528;2022-12-18T05:52:19;19.30;;;10.47;;
12663;SDS011;6396;58.490;15.528;2022-12-18T05:54:46;17.67;;;10.67;;
12663;SDS011;6396;58.490;15.528;2022-12-18T05:57:13;18.47;;;11.00;;
12663;SDS011;6396;58.490;15.528;2022-12-18T05:59:41;15.20;;;10.27;;
12663;SDS011;6396;58.490;15.528;2022-12-18T06:02:08;17.00;;;11.20;;
12663;SDS011;6396;58.490;15.528;2022-12-18T06:04:35;16.90;;;11.20;;
12663;SDS011;6396;58.490;15.528;2022-12-18T06:07:02;17.10;;;10.50;;
12663;SDS011;6396;58.490;15.528;2022-12-18T06:09:28;18.40;;;11.13;;
12663;SDS011;6396;58.490;15.528;2022-12-18T06:11:55;15.40;;;10.30;;
12663;SDS011;6396;58.490;15.528;2022-12-18T06:14:22;16.70;;;11.10;;
12663;SDS011;6396;58.490;15.528;2022-12-18T06:16:51;15.23;;;10.27;;
12663;SDS011;6396;58.490;15.528;2022-12-18T06:19:18;17.17;;;11.13;;
12663;SDS011;6396;58.490;15.528;2022-12-18T06:21:44;18.67;;;10.97;;
12663;SDS011;6396;58.490;15.528;2022-12-18T06:24:11;18.63;;;11.00;;
12663;SDS011;6396;58.490;15.528;2022-12-18T06:26:38;16.93;;;10.10;;
12663;SDS011;6396;58.490;15.528;2022-12-18T06:29:05;14.13;;;9.63;;
12663;SDS011;6396;58.490;15.528;2022-12-18T06:31:32;16.17;;;10.47;;
12663;SDS011;6396;58.490;15.528;2022-12-18T06:34:01;14.20;;;9.50;;
12663;SDS011;6396;58.490;15.528;2022-12-18T06:36:28;15.00;;;9.47;;
12663;SDS011;6396;58.490;15.528;2022-12-18T06:38:55;14.63;;;9.63;;
12663;SDS011;6396;58.490;15.528;2022-12-18T06:41:23;13.23;;;9.67;;
12663;SDS011;6396;58.490;15.528;2022-12-18T06:43:49;12.47;;;8.47;;
12663;SDS011;6396;58.490;15.528;2022-12-18T06:46:16;13.77;;;8.97;;
12663;SDS011;6396;58.490;15.528;2022-12-18T06:48:46;13.17;;;8.93;;
12663;SDS011;6396;58.490;15.528;2022-12-18T06:51:16;11.33;;;8.93;;
12663;SDS011;6396;58.490;15.528;2022-12-18T06:53:44;12.33;;;8.93;;
12663;SDS011;6396;58.490;15.528;2022-12-18T06:56:10;13.70;;;8.30;;
12663;SDS011;6396;58.490;15.528;2022-12-18T06:58:37;12.97;;;8.37;;
12663;SDS011;6396;58.490;15.528;2022-12-18T07:01:04;11.07;;;7.83;;
12663;SDS011;6396;58.490;15.528;2022-12-18T07:03:33;17.27;;;9.80;;
12663;SDS011;6396;58.490;15.528;2022-12-18T07:06:00;11.27;;;8.70;;
12663;SDS011;6396;58.490;15.528;2022-12-18T07:08:29;12.73;;;9.17;;
12663;SDS011;6396;58.490;15.528;2022-12-18T07:10:56;12.23;;;8.87;;
12663;SDS011;6396;58.490;15.528;2022-12-18T07:13:23;12.77;;;8.87;;
12663;SDS011;6396;58.490;15.528;2022-12-18T07:15:50;12.23;;;8.17;;
12663;SDS011;6396;58.490;15.528;2022-12-18T07:18:17;12.33;;;8.73;;
12663;SDS011;6396;58.490;15.528;2022-12-18T07:20:43;13.17;;;9.17;;
12663;SDS011;6396;58.490;15.528;2022-12-18T07:23:17;11.23;;;8.50;;
12663;SDS011;6396;58.490;15.528;2022-12-18T07:25:46;14.67;;;9.53;;
12663;SDS011;6396;58.490;15.528;2022-12-18T07:28:12;15.33;;;9.57;;
12663;SDS011;6396;58.490;15.528;2022-12-18T07:30:39;13.70;;;9.53;;
12663;SDS011;6396;58.490;15.528;2022-12-18T07:33:06;18.00;;;10.47;;
12663;SDS011;6396;58.490;15.528;2022-12-18T07:35:33;14.57;;;9.80;;
12663;SDS011;6396;58.490;15.528;2022-12-18T07:38:00;13.23;;;9.60;;
12663;SDS011;6396;58.490;15.528;2022-12-18T07:40:27;13.33;;;9.20;;
12663;SDS011;6396;58.490;15.528;2022-12-18T07:42:55;13.70;;;9.27;;
12663;SDS011;6396;58.490;15.528;2022-12-18T07:45:22;15.50;;;10.37;;
12663;SDS011;6396;58.490;15.528;2022-12-18T07:47:49;15.90;;;10.90;;
12663;SDS011;6396;58.490;15.528;2022-12-18T07:50:15;17.27;;;10.27;;
12663;SDS011;6396;58.490;15.528;2022-12-18T07:52:42;15.97;;;10.27;;
12663;SDS011;6396;58.490;15.528;2022-12-18T07:55:09;13.80;;;9.97;;
12663;SDS011;6396;58.490;15.528;2022-12-18T07:57:36;15.27;;;10.67;;
12663;SDS011;6396;58.490;15.528;2022-12-18T08:00:05;14.63;;;10.33;;
12663;SDS011;6396;58.490;15.528;2022-12-18T08:02:33;17.43;;;10.93;;
12663;SDS011;6396;58.490;15.528;2022-12-18T08:04:59;15.83;;;10.97;;
12663;SDS011;6396;58.490;15.528;2022-12-18T08:07:26;16.90;;;10.50;;
12663;SDS011;6396;58.490;15.528;2022-12-18T08:09:53;16.27;;;10.70;;
12663;SDS011;6396;58.490;15.528;2022-12-18T08:12:20;18.67;;;11.10;;
12663;SDS011;6396;58.490;15.528;2022-12-18T08:14:46;15.83;;;10.37;;
12663;SDS011;6396;58.490;15.528;2022-12-18T08:17:14;19.23;;;10.67;;
12663;SDS011;6396;58.490;15.528;2022-12-18T08:19:41;16.00;;;10.93;;
12663;SDS011;6396;58.490;15.528;2022-12-18T08:22:08;18.63;;;10.83;;
12663;SDS011;6396;58.490;15.528;2022-12-18T08:24:35;15.17;;;10.33;;
12663;SDS011;6396;58.490;15.528;2022-12-18T08:27:01;16.97;;;10.87;;
12663;SDS011;6396;58.490;15.528;2022-12-18T08:29:28;14.60;;;9.73;;
12663;SDS011;6396;58.490;15.528;2022-12-18T08:31:55;16.43;;;10.30;;
12663;SDS011;6396;58.490;15.528;2022-12-18T08:34:23;13.53;;;9.37;;
12663;SDS011;6396;58.490;15.528;2022-12-18T08:36:50;16.90;;;9.77;;
12663;SDS011;6396;58.490;15.528;2022-12-18T08:39:17;18.97;;;9.27;;
12663;SDS011;6396;58.490;15.528;2022-12-18T08:41:43;12.40;;;8.47;;
12663;SDS011;6396;58.490;15.528;2022-12-18T08:44:30;16.80;;;9.97;;
12663;SDS011;6396;58.490;15.528;2022-12-18T08:47:05;14.33;;;8.67;;
12663;SDS011;6396;58.490;15.528;2022-12-18T08:49:34;16.80;;;9.50;;
12663;SDS011;6396;58.490;15.528;2022-12-18T08:52:01;14.40;;;8.37;;
12663;SDS011;6396;58.490;15.528;2022-12-18T08:54:29;14.67;;;8.53;;
12663;SDS011;6396;58.490;15.528;2022-12-18T08:56:55;14.07;;;9.60;;
12663;SDS011;6396;58.490;15.528;2022-12-18T08:59:22;14.93;;;8.80;;
12663;SDS011;6396;58.490;15.528;2022-12-18T09:01:49;14.13;;;8.63;;
12663;SDS011;6396;58.490;15.528;2022-12-18T09:04:16;13.57;;;8.60;;
12663;SDS011;6396;58.490;15.528;2022-12-18T09:06:44;12.73;;;8.63;;
12663;SDS011;6396;58.490;15.528;2022-12-18T09:09:11;14.17;;;8.70;;
12663;SDS011;6396;58.490;15.528;2022-12-18T09:11:38;14.47;;;8.33;;
12663;SDS011;6396;58.490;15.528;2022-12-18T09:14:05;15.23;;;8.03;;
12663;SDS011;6396;58.490;15.528;2022-12-18T09:16:32;12.57;;;8.97;;
12663;SDS011;6396;58.490;15.528;2022-12-18T09:19:00;13.77;;;8.13;;
12663;SDS011;6396;58.490;15.528;2022-12-18T09:21:28;16.07;;;9.70;;
12663;SDS011;6396;58.490;15.528;2022-12-18T09:23:57;16.00;;;8.90;;
12663;SDS011;6396;58.490;15.528;2022-12-18T09:26:24;12.27;;;8.47;;
12663;SDS011;6396;58.490;15.528;2022-12-18T09:28:52;14.53;;;8.33;;
12663;SDS011;6396;58.490;15.528;2022-12-18T09:31:21;12.47;;;8.07;;
12663;SDS011;6396;58.490;15.528;2022-12-18T09:33:49;13.67;;;8.67;;
12663;SDS011;6396;58.490;15.528;2022-12-18T09:36:16;11.87;;;8.17;;
12663;SDS011;6396;58.490;15.528;2022-12-18T09:38:44;14.27;;;9.03;;
12663;SDS011;6396;58.490;15.528;2022-12-18T09:41:19;15.13;;;8.93;;
12663;SDS011;6396;58.490;15.528;2022-12-18T09:44:01;13.50;;;8.70;;
12663;SDS011;6396;58.490;15.528;2022-12-18T09:46:32;13.80;;;8.43;;
12663;SDS011;6396;58.490;15.528;2022-12-18T09:49:05;12.67;;;8.23;;
12663;SDS011;6396;58.490;15.528;2022-12-18T09:51:37;13.63;;;8.77;;
12663;SDS011;6396;58.490;15.528;2022-12-18T09:54:11;16.93;;;9.30;;
12663;SDS011;6396;58.490;15.528;2022-12-18T09:56:42;11.57;;;7.97;;
12663;SDS011;6396;58.490;15.528;2022-12-18T09:59:14;12.70;;;7.80;;
12663;SDS011;6396;58.490;15.528;2022-12-18T10:01:56;12.53;;;8.43;;
12663;SDS011;6396;58.490;15.528;2022-12-18T10:04:23;14.00;;;8.60;;
12663;SDS011;6396;58.490;15.528;2022-12-18T10:06:52;12.67;;;7.87;;
12663;SDS011;6396;58.490;15.528;2022-12-18T10:09:27;13.90;;;8.43;;
12663;SDS011;6396;58.490;15.528;2022-12-18T10:12:00;11.23;;;7.70;;
12663;SDS011;6396;58.490;15.528;2022-12-18T10:14:36;11.87;;;8.27;;
12663;SDS011;6396;58.490;15.528;2022-12-18T10:17:13;14.07;;;7.70;;
12663;SDS011;6396;58.490;15.528;2022-12-18T10:19:50;11.10;;;7.37;;
12663;SDS011;6396;58.490;15.528;2022-12-18T10:22:26;12.07;;;7.03;;
12663;SDS011;6396;58.490;15.528;2022-12-18T10:25:06;10.60;;;7.50;;
12663;SDS011;6396;58.490;15.528;2022-12-18T10:27:46;12.33;;;6.97;;
12663;SDS011;6396;58.490;15.528;2022-12-18T10:30:14;10.03;;;7.00;;
12663;SDS011;6396;58.490;15.528;2022-12-18T10:32:44;7.90;;;5.87;;
12663;SDS011;6396;58.490;15.528;2022-12-18T10:35:14;8.90;;;6.13;;
12663;SDS011;6396;58.490;15.528;2022-12-18T10:38:03;8.53;;;6.00;;
12663;SDS011;6396;58.490;15.528;2022-12-18T10:40:32;7.80;;;5.67;;
12663;SDS011;6396;58.490;15.528;2022-12-18T10:43:16;9.27;;;5.47;;
12663;SDS011;6396;58.490;15.528;2022-12-18T10:45:58;9.80;;;5.83;;
12663;SDS011;6396;58.490;15.528;2022-12-18T10:48:27;9.17;;;5.63;;
12663;SDS011;6396;58.490;15.528;2022-12-18T10:50:56;8.17;;;5.97;;
12663;SDS011;6396;58.490;15.528;2022-12-18T10:53:24;8.37;;;5.90;;
12663;SDS011;6396;58.490;15.528;2022-12-18T10:55:53;10.30;;;6.23;;
12663;SDS011;6396;58.490;15.528;2022-12-18T10:58:27;11.00;;;6.37;;
12663;SDS011;6396;58.490;15.528;2022-12-18T11:03:45;13.17;;;7.27;;
12663;SDS011;6396;58.490;15.528;2022-12-18T11:06:24;10.93;;;6.63;;
12663;SDS011;6396;58.490;15.528;2022-12-18T11:08:57;13.50;;;7.33;;
12663;SDS011;6396;58.490;15.528;2022-12-18T11:11:25;13.07;;;7.23;;
12663;SDS011;6396;58.490;15.528;2022-12-18T11:14:01;10.70;;;6.47;;
12663;SDS011;6396;58.490;15.528;2022-12-18T11:16:30;11.30;;;6.77;;
12663;SDS011;6396;58.490;15.528;2022-12-18T11:19:17;8.73;;;6.23;;
12663;SDS011;6396;58.490;15.528;2022-12-18T11:22:03;10.13;;;6.80;;
12663;SDS011;6396;58.490;15.528;2022-12-18T11:24:56;11.27;;;7.00;;
12663;SDS011;6396;58.490;15.528;2022-12-18T11:27:41;11.50;;;6.63;;
12663;SDS011;6396;58.490;15.528;2022-12-18T11:33:09;12.17;;;6.20;;
12663;SDS011;6396;58.490;15.528;2022-12-18T11:35:44;8.53;;;6.13;;
12663;SDS011;6396;58.490;15.528;2022-12-18T11:38:18;10.23;;;5.73;;
12663;SDS011;6396;58.490;15.528;2022-12-18T11:40:51;8.53;;;5.50;;
12663;SDS011;6396;58.490;15.528;2022-12-18T11:43:22;10.23;;;6.00;;
12663;SDS011;6396;58.490;15.528;2022-12-18T11:45:55;8.70;;;5.60;;
12663;SDS011;6396;58.490;15.528;2022-12-18T11:48:27;9.83;;;5.57;;
12663;SDS011;6396;58.490;15.528;2022-12-18T11:50:56;10.73;;;6.20;;
12663;SDS011;6396;58.490;15.528;2022-12-18T11:53:26;10.00;;;5.43;;
12663;SDS011;6396;58.490;15.528;2022-12-18T11:55:59;7.87;;;4.93;;
12663;SDS011;6396;58.490;15.528;2022-12-18T11:58:45;9.50;;;5.40;;
12663;SDS011;6396;58.490;15.528;2022-12-18T12:01:23;8.63;;;5.13;;
12663;SDS011;6396;58.490;15.528;2022-12-18T12:04:17;7.80;;;4.80;;
12663;SDS011;6396;58.490;15.528;2022-12-18T12:06:59;8.20;;;4.53;;
12663;SDS011;6396;58.490;15.528;2022-12-18T12:09:37;7.00;;;4.60;;
12663;SDS011;6396;58.490;15.528;2022-12-18T12:12:15;7.17;;;4.43;;
12663;SDS011;6396;58.490;15.528;2022-12-18T12:14:54;5.17;;;3.70;;
12663;SDS011;6396;58.490;15.528;2022-12-18T12:17:31;5.83;;;3.83;;
12663;SDS011;6396;58.490;15.528;2022-12-18T12:20:08;5.13;;;3.87;;
12663;SDS011;6396;58.490;15.528;2022-12-18T12:22:43;5.70;;;3.93;;
12663;SDS011;6396;58.490;15.528;2022-12-18T12:25:21;5.50;;;3.43;;
12663;SDS011;6396;58.490;15.528;2022-12-18T12:28:00;5.67;;;3.53;;
12663;SDS011;6396;58.490;15.528;2022-12-18T12:30:39;8.47;;;4.63;;
12663;SDS011;6396;58.490;15.528;2022-12-18T12:33:22;7.27;;;4.37;;
12663;SDS011;6396;58.490;15.528;2022-12-18T12:36:01;6.73;;;4.43;;
12663;SDS011;6396;58.490;15.528;2022-12-18T12:38:37;7.07;;;3.97;;
12663;SDS011;6396;58.490;15.528;2022-12-18T12:41:10;7.67;;;4.40;;
12663;SDS011;6396;58.490;15.528;2022-12-18T12:43:55;6.53;;;4.67;;
12663;SDS011;6396;58.490;15.528;2022-12-18T12:46:23;7.47;;;4.57;;
12663;SDS011;6396;58.490;15.528;2022-12-18T12:48:52;7.90;;;4.53;;
12663;SDS011;6396;58.490;15.528;2022-12-18T12:51:25;9.20;;;4.50;;
12663;SDS011;6396;58.490;15.528;2022-12-18T12:53:54;8.60;;;4.70;;
12663;SDS011;6396;58.490;15.528;2022-12-18T12:56:24;6.37;;;3.97;;
12663;SDS011;6396;58.490;15.528;2022-12-18T12:59:04;7.87;;;4.80;;
12663;SDS011;6396;58.490;15.528;2022-12-18T13:01:46;7.37;;;4.20;;
12663;SDS011;6396;58.490;15.528;2022-12-18T13:04:20;8.90;;;4.83;;
12663;SDS011;6396;58.490;15.528;2022-12-18T13:06:56;6.37;;;4.13;;
12663;SDS011;6396;58.490;15.528;2022-12-18T13:09:29;8.10;;;4.17;;
12663;SDS011;6396;58.490;15.528;2022-12-18T13:12:01;9.03;;;4.50;;
12663;SDS011;6396;58.490;15.528;2022-12-18T13:14:46;9.47;;;5.00;;
12663;SDS011;6396;58.490;15.528;2022-12-18T13:17:14;6.27;;;4.53;;
12663;SDS011;6396;58.490;15.528;2022-12-18T13:20:08;8.03;;;5.23;;
12663;SDS011;6396;58.490;15.528;2022-12-18T13:22:39;8.27;;;4.90;;
12663;SDS011;6396;58.490;15.528;2022-12-18T13:28:02;9.07;;;5.90;;
12663;SDS011;6396;58.490;15.528;2022-12-18T13:30:41;8.67;;;5.80;;
12663;SDS011;6396;58.490;15.528;2022-12-18T13:33:30;9.10;;;5.97;;
12663;SDS011;6396;58.490;15.528;2022-12-18T13:36:09;11.50;;;5.93;;
12663;SDS011;6396;58.490;15.528;2022-12-18T13:38:41;11.20;;;6.57;;
12663;SDS011;6396;58.490;15.528;2022-12-18T13:41:22;15.10;;;7.13;;
12663;SDS011;6396;58.490;15.528;2022-12-18T13:43:51;11.57;;;6.57;;
12663;SDS011;6396;58.490;15.528;2022-12-18T13:46:20;11.33;;;6.43;;
12663;SDS011;6396;58.490;15.528;2022-12-18T13:48:50;11.50;;;6.47;;
12663;SDS011;6396;58.490;15.528;2022-12-18T13:51:20;11.93;;;6.17;;
12663;SDS011;6396;58.490;15.528;2022-12-18T13:53:49;9.53;;;6.07;;
12663;SDS011;6396;58.490;15.528;2022-12-18T13:56:18;9.73;;;6.40;;
12663;SDS011;6396;58.490;15.528;2022-12-18T14:01:40;8.27;;;5.60;;
12663;SDS011;6396;58.490;15.528;2022-12-18T14:04:09;9.33;;;5.60;;
12663;SDS011;6396;58.490;15.528;2022-12-18T14:06:36;8.00;;;5.47;;
12663;SDS011;6396;58.490;15.528;2022-12-18T14:09:11;9.33;;;5.40;;
12663;SDS011;6396;58.490;15.528;2022-12-18T14:11:48;10.93;;;5.10;;
12663;SDS011;6396;58.490;15.528;2022-12-18T14:14:17;8.67;;;5.57;;
12663;SDS011;6396;58.490;15.528;2022-12-18T14:16:45;9.10;;;5.70;;
12663;SDS011;6396;58.490;15.528;2022-12-18T14:19:18;10.13;;;5.63;;
12663;SDS011;6396;58.490;15.528;2022-12-18T14:21:47;10.93;;;5.70;;
12663;SDS011;6396;58.490;15.528;2022-12-18T14:24:19;8.73;;;6.00;;
12663;SDS011;6396;58.490;15.528;2022-12-18T14:26:47;9.60;;;5.67;;
12663;SDS011;6396;58.490;15.528;2022-12-18T14:29:22;10.33;;;5.97;;
12663;SDS011;6396;58.490;15.528;2022-12-18T14:32:03;10.47;;;6.67;;
12663;SDS011;6396;58.490;15.528;2022-12-18T14:34:31;10.43;;;6.57;;
12663;SDS011;6396;58.490;15.528;2022-12-18T14:36:58;11.57;;;5.87;;
12663;SDS011;6396;58.490;15.528;2022-12-18T14:39:26;14.20;;;6.60;;
12663;SDS011;6396;58.490;15.528;2022-12-18T14:41:53;11.90;;;6.50;;
12663;SDS011;6396;58.490;15.528;2022-12-18T14:44:20;12.17;;;6.20;;
12663;SDS011;6396;58.490;15.528;2022-12-18T14:46:48;10.73;;;5.90;;
12663;SDS011;6396;58.490;15.528;2022-12-18T14:49:18;12.60;;;6.67;;
12663;SDS011;6396;58.490;15.528;2022-12-18T14:51:56;10.37;;;6.37;;
12663;SDS011;6396;58.490;15.528;2022-12-18T14:54:28;13.87;;;6.40;;
12663;SDS011;6396;58.490;15.528;2022-12-18T14:56:59;10.80;;;7.27;;
12663;SDS011;6396;58.490;15.528;2022-12-18T14:59:28;14.73;;;7.30;;
12663;SDS011;6396;58.490;15.528;2022-12-18T15:01:59;13.33;;;7.03;;
12663;SDS011;6396;58.490;15.528;2022-12-18T15:04:32;12.87;;;7.30;;
12663;SDS011;6396;58.490;15.528;2022-12-18T15:07:06;12.50;;;7.63;;